LiveATC.Net - Listen to live air traffic control over the Internet! Contact for advertising information

ICAO: CYQG  IATA: YQG   Airport: Windsor Airport
City: Windsor   State/Province: Ontario
Country: Canada   Continent: North America
CYQG METAR Weather: CYQG 060100Z 05008KT 12SM SKC 15/14 A3015 RMK SLP211
CYQG Flight Activity (FlightAware)
CYQG Gnd/Twr/App/Misc
Feed Status: DOWN
Last heard on: 2015-10-04 18:44:02 (1 days 7 hours 2 minutes ago)
CYQG Gnd/Twr/App/Misc Audio Archives
Detroit Approach134.300
Great Lakes ESSO122.950
Jazz Air131.775
London RCO123.375
Windsor Ground121.700
Windsor Tower124.700

CYQG Ground/Tower
Feed Status: DOWN
Last heard on: 2015-09-23 16:26:02 (12 days 9 hours 20 minutes ago)
CYQG Ground/Tower Audio Archives
Windsor Ground121.700
Windsor Tower124.700


Unauthorized use prohibited. See Terms of Service

Find LiveATC Audio Streams

Airport/ARTCC Code

(e.g., 124.400, 128.75)
Site-wide search

Browse LiveATC Feeds
LiveATC Coverage Map
Top 50 LiveATC Feeds
Bad Weather Areas

Offer a LiveATC Feed
Press Inquiries

LiveATC on iPhone
LiveATC on Android

LiveATC Mobile
(Mobile browser)

ATC Audio Archives
Interesting Recordings

LiveATC Forums

Home Page
Make a Donation
LiveATC Bookstore

Terms of Use
Privacy Policy

ATC/Radar Sites
U.S. ARTCC Freqs
Canadian Air Freqs


FAA Airport Status
Nat'l Airspace Status
Arrival Demand Charts

Server Software By:

Please make a donation to help us keep growing!